Terminal Aerodrome Forecast
Issued by NWS

Home | Current Version | Previous Version | Text Only | Print | Product List | Glossary On
Versions: 1 2 3 4 5 6 7 8 9 10 11 12 13 14 15 16 17 18 19 20 21 22 23
000
FTUS41 KBGM 212300
TAFRME
TAF
KRME 212332Z 2200/2224 34004KT P6SM BKN060
      TEMPO 2200/2201 2SM -SHSN OVC025
     FM220900 16005KT P6SM SCT060
     FM221400 12006KT P6SM OVC100
     FM221800 12006KT 5SM -FZRAPLSN BR OVC025=

USA.gov is the U.S. government's official web portal to all federal, state and local government web resources and services.